Atlantic - Newfoundland: Past 24 Hour Conditions

 

Grand Étang

11:00 AM ADT 30 October 2014
This table is a summary of hourly weather conditions for the past 24 hours.
Date / Time
(ADT)
Wind(knots) Conditions Visibility(km) Pressure(kPa) Air tempC) Relative humidity(%) Dew pointC)
30 October 2014
11:00 SW 11 N/A N/A 100.7 12 89 10
10:00 W 6 N/A N/A 100.7 12 87 10
9:00 SE 4 N/A N/A 100.7 11 89 10
8:00 W 11 gust 17 N/A N/A 100.6 12 91 11
7:00 SW 16 N/A N/A 100.4 14 91 13
6:00 S 13 gust 18 N/A N/A 100.3 18 83 15
5:00 S 16 gust 21 N/A N/A 100.3 18 84 15
4:00 S 14 gust 20 N/A N/A 100.4 18 82 15
3:00 S 11 N/A N/A 100.5 18 83 15
2:00 S 12 gust 21 N/A N/A 100.4 18 81 15
1:00 S 15 gust 20 N/A N/A 100.5 18 80 15
0:00 S 14 gust 21 N/A N/A 100.6 18 81 15
29 October 2014
23:00 S 12 gust 22 N/A N/A 100.7 18 81 14
22:00 SSE 15 N/A N/A 100.7 17 80 14
21:00 SSE 10 gust 18 N/A N/A 100.8 16 81 13
20:00 SE 17 gust 28 N/A N/A 100.8 16 81 12
19:00 SE 27 gust 36 N/A N/A 100.8 15 81 12
18:00 SE 21 gust 38 N/A N/A 100.9 14 80 11
17:00 SE 23 gust 34 N/A N/A 101.0 14 79 10
16:00 SE 20 gust 30 N/A N/A 101.1 13 77 9
15:00 SSE 14 gust 28 N/A N/A 101.2 12 78 8
14:00 ESE 20 gust 27 N/A N/A 101.3 11 77 7
13:00 SSE 14 gust 20 N/A N/A 101.5 10 77 6
12:00 S 10 gust 18 N/A N/A 101.7 10 73 5
11:00 SSE 14 N/A N/A 101.7 10 74 5
 
Map of Atlantic - Newfoundland marine weather areas Southwestern Grand Banks - 44138 Banquereau - 44139 Tail of the Bank - 44140 Nickerson Bank - 44251 Northeast Burgeo Bank - 44255 Blanc-Sablon Airport Cap Whittle Chevery Natashquan Airport Heath Point Miscou Island Grand Étang Ingonish Beach North Mountain St.Paul Island J.A. Douglas McCurdy Sydney Airport Charlottetown Airport East Point North Cape Argentia Bonavista Burgeo Cape Race Corner Brook Daniel's Harbour Englee Ferolle Point La Scie Port aux Basques Rocky Harbour Sagona Island St. Anthony Airport St. John's Int'l Airport St. Lawrence Stephenville Airport Twillingate Winterland Wreckhouse Cartwright Airport Mary's Harbour Grates Cove Pool's Island Marticot Island Long Pond Îles de la Madeleine Airport
Legend: buoyBuoy land stationLand Station